createdAt,value
2018-09-14T00:01:40.461Z,17.57
2018-09-14T00:04:11.149Z,8.60
2018-09-14T00:06:41.384Z,25.90
2018-09-14T00:09:13.371Z,28.27
2018-09-14T00:11:44.407Z,59.77
2018-09-14T00:14:14.874Z,90.23
2018-09-14T00:16:45.367Z,26.53
2018-09-14T00:19:15.932Z,75.23
2018-09-14T00:21:46.254Z,35.43
2018-09-14T00:24:16.675Z,27.37
2018-09-14T00:26:47.104Z,40.63
2018-09-14T00:29:17.537Z,22.43
2018-09-14T00:31:48.142Z,21.20
2018-09-14T00:34:18.597Z,17.30
2018-09-14T00:36:49.001Z,22.30
2018-09-14T00:39:19.327Z,29.47
2018-09-14T00:41:49.708Z,14.17
2018-09-14T00:44:20.144Z,10.63
2018-09-14T00:46:50.586Z,8.90
2018-09-14T00:49:20.908Z,17.03
2018-09-14T00:51:51.283Z,5.77
2018-09-14T00:54:21.865Z,4.73
2018-09-14T00:56:52.164Z,8.90
2018-09-14T00:59:22.549Z,9.93
2018-09-14T01:01:52.919Z,9.33
2018-09-14T01:04:23.659Z,9.47
2018-09-14T01:06:54.376Z,31.67
2018-09-14T01:09:25.643Z,24.27
2018-09-14T01:11:57.512Z,23.00
2018-09-14T01:14:29.012Z,29.23
2018-09-14T01:16:59.605Z,12.87
2018-09-14T01:19:30.002Z,27.83
2018-09-14T01:22:00.412Z,30.00
2018-09-14T01:24:30.903Z,20.40
2018-09-14T01:27:01.335Z,29.63
2018-09-14T01:29:31.764Z,20.97
2018-09-14T01:32:02.324Z,34.17
2018-09-14T01:34:32.816Z,43.27
2018-09-14T01:37:03.195Z,79.33
2018-09-14T01:39:33.546Z,66.57
2018-09-14T01:42:04.093Z,141.07
2018-09-14T01:44:34.430Z,97.07
2018-09-14T01:47:04.798Z,157.00
2018-09-14T01:49:35.059Z,167.03
2018-09-14T01:52:05.568Z,177.43
2018-09-14T01:54:36.028Z,143.40
2018-09-14T01:57:06.649Z,100.70
2018-09-14T01:59:37.124Z,63.40
2018-09-14T02:02:07.630Z,120.80
2018-09-14T02:04:38.087Z,114.40
2018-09-14T02:07:08.539Z,106.77
2018-09-14T02:09:38.960Z,110.67
2018-09-14T02:12:09.624Z,54.80
2018-09-14T02:14:40.012Z,60.93
2018-09-14T02:17:10.421Z,105.93
2018-09-14T02:19:40.761Z,90.40
2018-09-14T02:22:11.222Z,73.10
2018-09-14T02:24:41.620Z,65.77
2018-09-14T02:27:12.210Z,67.80
2018-09-14T02:29:42.711Z,50.63
2018-09-14T02:32:12.955Z,60.33
2018-09-14T02:34:43.343Z,51.77
2018-09-14T02:37:13.932Z,21.03
2018-09-14T02:39:44.531Z,41.23
2018-09-14T02:42:14.813Z,34.43
2018-09-14T02:44:45.060Z,73.17
2018-09-14T02:47:15.679Z,42.23
2018-09-14T02:49:46.043Z,39.43
2018-09-14T02:52:16.756Z,42.13
2018-09-14T02:54:47.296Z,64.47
2018-09-14T02:57:17.787Z,52.97
2018-09-14T02:59:48.392Z,40.87
2018-09-14T03:02:18.525Z,50.20
2018-09-14T03:04:48.924Z,61.07
2018-09-14T03:07:19.404Z,19.23
2018-09-14T03:09:49.696Z,45.07
2018-09-14T03:12:19.903Z,41.70
2018-09-14T03:14:50.274Z,39.73
2018-09-14T03:17:20.557Z,24.63
2018-09-14T03:19:50.963Z,10.00
2018-09-14T03:22:21.444Z,14.30
2018-09-14T03:24:51.772Z,16.87
2018-09-14T03:27:22.022Z,30.27
2018-09-14T03:29:52.321Z,7.53
2018-09-14T03:32:22.882Z,14.87
2018-09-14T03:34:53.424Z,15.00
2018-09-14T03:37:23.622Z,19.33
2018-09-14T03:39:54.423Z,6.33
2018-09-14T03:42:25.008Z,21.20
2018-09-14T03:44:55.351Z,14.93
2018-09-14T03:47:25.807Z,32.07
2018-09-14T03:49:56.408Z,26.90
2018-09-14T03:52:26.734Z,21.53
2018-09-14T03:54:56.941Z,23.60
2018-09-14T03:57:27.314Z,37.77
2018-09-14T03:59:57.825Z,11.07
2018-09-14T04:02:28.228Z,90.17
2018-09-14T04:04:58.565Z,31.27
2018-09-14T04:07:29.065Z,22.83
2018-09-14T04:09:59.449Z,84.93
2018-09-14T04:12:29.954Z,47.03
2018-09-14T04:15:00.419Z,78.97
2018-09-14T04:17:30.704Z,139.23
2018-09-14T04:20:01.521Z,94.67
2018-09-14T04:22:31.956Z,189.57
2018-09-14T04:25:02.341Z,149.87
2018-09-14T04:27:32.748Z,155.60
2018-09-14T04:30:03.088Z,217.57
2018-09-14T04:32:33.364Z,47.10
2018-09-14T04:35:03.843Z,87.30
2018-09-14T04:37:34.216Z,47.00
2018-09-14T04:40:04.900Z,58.97
2018-09-14T04:42:35.379Z,36.43
2018-09-14T04:45:06.452Z,30.57
2018-09-14T04:47:36.842Z,64.53
2018-09-14T04:50:08.076Z,88.83
2018-09-14T04:52:39.378Z,92.93
2018-09-14T04:55:09.708Z,40.43
2018-09-14T04:57:40.196Z,70.33
2018-09-14T05:00:10.685Z,77.50
2018-09-14T05:02:41.166Z,23.43
2018-09-14T05:05:11.659Z,18.53
2018-09-14T05:07:42.144Z,7.83
2018-09-14T05:10:12.704Z,12.40
2018-09-14T05:12:43.196Z,50.83
2018-09-14T05:15:13.812Z,9.30
2018-09-14T05:17:44.008Z,8.70
2018-09-14T05:20:14.462Z,12.17
2018-09-14T05:22:45.021Z,13.40
2018-09-14T05:25:15.513Z,17.40
2018-09-14T05:27:45.820Z,10.97
2018-09-14T05:30:16.335Z,16.83
2018-09-14T05:32:47.932Z,23.83
2018-09-14T05:35:18.303Z,157.10
2018-09-14T05:37:48.655Z,40.93
2018-09-14T05:40:19.145Z,39.17
2018-09-14T05:42:49.535Z,266.97
2018-09-14T05:45:20.018Z,49.03
2018-09-14T05:47:50.428Z,139.73
2018-09-14T05:50:20.935Z,77.90
2018-09-14T05:52:51.524Z,29.00
2018-09-14T05:55:22.117Z,55.87
2018-09-14T05:57:52.585Z,25.93
2018-09-14T06:00:22.972Z,27.37
2018-09-14T06:02:53.472Z,97.07
2018-09-14T06:05:42.817Z,273.53
2018-09-14T06:08:13.257Z,220.73
2018-09-14T06:10:43.817Z,223.77
2018-09-14T06:13:14.316Z,250.20
2018-09-14T06:15:44.893Z,133.23
2018-09-14T06:18:15.456Z,68.97
2018-09-14T06:20:46.001Z,222.73
2018-09-14T06:23:16.685Z,34.83
2018-09-14T06:25:47.072Z,300.13
2018-09-14T06:28:17.544Z,212.70
2018-09-14T06:30:48.153Z,171.87
2018-09-14T06:33:18.555Z,160.23
2018-09-14T06:35:49.563Z,158.37
2018-09-14T06:38:20.177Z,56.23
2018-09-14T06:40:51.213Z,152.57
2018-09-14T06:43:21.716Z,122.27
2018-09-14T06:45:52.129Z,70.50
2018-09-14T06:48:22.455Z,121.87
2018-09-14T06:50:52.913Z,193.93
2018-09-14T06:53:23.599Z,110.97
2018-09-14T06:55:54.006Z,105.40
2018-09-14T06:58:25.503Z,40.43
2018-09-14T07:00:55.943Z,40.10
2018-09-14T07:03:26.331Z,132.20
2018-09-14T07:05:56.945Z,154.83
2018-09-14T07:08:27.459Z,56.70
2018-09-14T07:10:57.904Z,82.03
2018-09-14T07:13:28.293Z,64.10
2018-09-14T07:15:58.716Z,29.70
2018-09-14T07:18:29.080Z,48.93
2018-09-14T07:20:59.466Z,36.27
2018-09-14T07:23:30.426Z,42.37
2018-09-14T07:26:00.985Z,87.70
2018-09-14T07:28:31.568Z,38.97
2018-09-14T07:31:01.928Z,52.63
2018-09-14T07:33:32.184Z,41.53
2018-09-14T07:36:02.771Z,80.37
2018-09-14T07:38:33.247Z,60.13
2018-09-14T07:41:03.586Z,33.83
2018-09-14T07:43:33.991Z,39.33
2018-09-14T07:46:04.417Z,43.77
2018-09-14T07:48:34.727Z,122.57
2018-09-14T07:51:05.288Z,30.80
2018-09-14T07:53:35.877Z,33.57
2018-09-14T07:56:06.379Z,38.80
2018-09-14T07:58:36.882Z,29.90
2018-09-14T08:01:07.201Z,32.60
2018-09-14T08:03:37.615Z,27.23
2018-09-14T08:06:08.199Z,33.43
2018-09-14T08:08:38.791Z,35.43
2018-09-14T08:11:09.135Z,28.43
2018-09-14T08:13:39.634Z,33.87
2018-09-14T08:16:09.964Z,32.80
2018-09-14T08:18:40.364Z,30.80
2018-09-14T08:21:10.910Z,30.03
2018-09-14T08:23:41.549Z,29.20
2018-09-14T08:26:11.923Z,34.20
2018-09-14T08:28:42.292Z,28.17
2018-09-14T08:31:12.651Z,31.03
2018-09-14T08:33:43.109Z,30.30
2018-09-14T08:36:13.547Z,25.30
2018-09-14T08:38:44.083Z,26.67
2018-09-14T08:41:14.902Z,26.57
2018-09-14T08:43:45.248Z,28.70
2018-09-14T08:46:15.584Z,25.27
2018-09-14T08:48:46.003Z,22.57
2018-09-14T08:51:21.423Z,23.23
2018-09-14T08:53:51.847Z,23.10
2018-09-14T08:56:22.235Z,22.03
2018-09-14T08:59:00.892Z,24.07
2018-09-14T09:01:31.445Z,22.23
2018-09-14T09:04:05.616Z,22.90
2018-09-14T09:06:35.957Z,20.23
2018-09-14T09:09:09.488Z,20.03
2018-09-14T09:11:40.044Z,16.47
2018-09-14T09:14:10.255Z,17.83
2018-09-14T09:16:40.877Z,17.60
2018-09-14T09:19:11.216Z,17.10
2018-09-14T09:21:41.597Z,21.67
2018-09-14T09:24:12.181Z,21.53
2018-09-14T09:26:42.668Z,26.63
2018-09-14T09:29:13.052Z,16.60
2018-09-14T09:31:43.496Z,17.43
2018-09-14T09:37:49.214Z,18.53
2018-09-14T09:40:19.772Z,22.03
2018-09-14T09:42:50.238Z,20.00
2018-09-14T09:45:20.600Z,21.57
2018-09-14T09:47:51.064Z,22.97
2018-09-14T09:50:21.468Z,20.30
2018-09-14T09:52:51.904Z,18.30
2018-09-14T09:55:22.128Z,22.90
2018-09-14T09:58:17.023Z,19.30
2018-09-14T10:00:52.541Z,15.93
2018-09-14T10:03:27.973Z,20.37
2018-09-14T10:06:03.447Z,15.47
2018-09-14T10:08:33.893Z,18.50
2018-09-14T10:11:04.947Z,12.93
2018-09-14T10:13:35.342Z,14.33
2018-09-14T10:16:06.061Z,19.90
2018-09-14T10:18:36.400Z,16.07
2018-09-14T10:21:07.269Z,18.33
2018-09-14T10:23:37.753Z,15.27
2018-09-14T10:26:08.381Z,18.03
2018-09-14T10:28:39.024Z,25.63
2018-09-14T10:31:09.675Z,28.87
2018-09-14T10:33:39.992Z,15.33
2018-09-14T10:36:10.880Z,15.77
2018-09-14T10:38:41.419Z,18.10
2018-09-14T10:41:13.377Z,19.50
2018-09-14T10:43:43.596Z,17.73
2018-09-14T10:46:14.040Z,16.17
2018-09-14T10:48:44.373Z,19.20
2018-09-14T10:51:14.937Z,17.73
2018-09-14T10:53:45.523Z,25.83
2018-09-14T10:56:15.886Z,12.93
2018-09-14T10:58:46.428Z,15.37
2018-09-14T11:01:17.325Z,14.77
2018-09-14T11:03:47.705Z,11.93
2018-09-14T11:06:18.132Z,15.03
2018-09-14T11:08:49.201Z,15.13
2018-09-14T11:11:19.700Z,12.63
2018-09-14T11:13:50.022Z,16.07
2018-09-14T11:16:20.576Z,11.00
2018-09-14T11:18:51.218Z,11.73
2018-09-14T11:21:21.484Z,14.13
2018-09-14T11:23:51.948Z,9.67
2018-09-14T11:26:22.249Z,11.53
2018-09-14T11:28:52.639Z,12.53
2018-09-14T11:31:28.939Z,12.73
2018-09-14T11:33:59.717Z,13.07
2018-09-14T11:36:30.288Z,16.20
2018-09-14T11:39:00.773Z,14.37
2018-09-14T11:41:31.280Z,10.33
2018-09-14T11:44:01.544Z,10.87
2018-09-14T11:46:31.993Z,11.10
2018-09-14T11:49:02.334Z,9.47
2018-09-14T11:51:32.991Z,9.50
2018-09-14T11:54:03.700Z,13.70
2018-09-14T11:56:34.977Z,15.53
2018-09-14T11:59:05.453Z,10.60
2018-09-14T12:01:36.161Z,13.30
2018-09-14T12:04:06.741Z,14.43
2018-09-14T12:06:37.400Z,11.63
2018-09-14T12:09:11.402Z,11.80
2018-09-14T12:11:42.385Z,8.90
2018-09-14T12:14:12.898Z,13.67
2018-09-14T12:16:43.387Z,11.90
2018-09-14T12:19:13.896Z,11.03
2018-09-14T12:21:44.233Z,6.90
2018-09-14T12:24:14.668Z,10.70
2018-09-14T12:26:45.089Z,14.73
2018-09-14T12:29:15.379Z,9.17
2018-09-14T12:31:45.877Z,13.77
2018-09-14T12:34:16.356Z,6.67
2018-09-14T12:36:47.661Z,9.33
2018-09-14T12:39:18.149Z,11.07
2018-09-14T12:41:48.711Z,8.23
2018-09-14T12:44:19.004Z,14.77
2018-09-14T12:46:49.350Z,16.03
2018-09-14T12:49:19.761Z,6.80
2018-09-14T12:51:50.223Z,6.30
2018-09-14T12:54:20.531Z,7.80
2018-09-14T12:56:50.980Z,10.50
2018-09-14T12:59:21.256Z,6.80
2018-09-14T13:01:51.916Z,10.90
2018-09-14T13:04:22.876Z,6.30
2018-09-14T13:06:53.322Z,5.93
2018-09-14T13:09:23.746Z,9.13
2018-09-14T13:11:53.970Z,11.97
2018-09-14T13:14:24.766Z,7.03
2018-09-14T13:16:54.007Z,8.37
2018-09-14T13:19:24.310Z,8.00
2018-09-14T13:21:54.880Z,12.70
2018-09-14T13:24:25.576Z,9.10
2018-09-14T13:26:56.008Z,11.63
2018-09-14T13:29:26.405Z,5.83
2018-09-14T13:31:56.832Z,10.40
2018-09-14T13:34:28.454Z,10.50
2018-09-14T13:36:58.956Z,11.37
2018-09-14T13:39:29.312Z,9.27
2018-09-14T13:41:59.636Z,10.10
2018-09-14T13:44:30.071Z,14.23
2018-09-14T13:47:01.340Z,6.67
2018-09-14T13:49:31.822Z,11.03
2018-09-14T13:52:02.139Z,6.80
2018-09-14T13:54:32.479Z,6.40
2018-09-14T13:57:03.462Z,5.37
2018-09-14T13:59:33.952Z,11.70
2018-09-14T14:02:04.376Z,8.00
2018-09-14T14:04:35.162Z,11.40
2018-09-14T14:07:05.611Z,10.47
2018-09-14T14:09:36.222Z,12.40
2018-09-14T14:12:06.520Z,9.03
2018-09-14T14:14:36.861Z,5.43
2018-09-14T14:17:07.558Z,9.93
2018-09-14T14:19:38.038Z,7.53
2018-09-14T14:22:08.646Z,10.90
2018-09-14T14:24:39.096Z,9.73
2018-09-14T14:27:09.558Z,9.73
2018-09-14T14:29:39.924Z,9.63
2018-09-14T14:32:10.391Z,4.97
2018-09-14T14:34:40.746Z,6.40
2018-09-14T14:37:11.049Z,4.87
2018-09-14T14:39:41.496Z,3.17
2018-09-14T14:42:11.821Z,4.10
2018-09-14T14:44:42.291Z,10.10
2018-09-14T14:47:12.569Z,6.70
2018-09-14T14:49:42.913Z,5.23
2018-09-14T14:52:13.231Z,7.43
2018-09-14T14:54:43.688Z,7.50
2018-09-14T14:57:14.005Z,11.13
2018-09-14T15:02:44.730Z,11.53
2018-09-14T15:05:15.108Z,7.03
2018-09-14T15:07:45.463Z,7.33
2018-09-14T15:10:16.116Z,6.60
2018-09-14T15:12:46.476Z,9.97
2018-09-14T15:15:16.721Z,8.53
2018-09-14T15:17:47.035Z,6.23
2018-09-14T15:20:17.556Z,10.67
2018-09-14T15:22:47.872Z,9.57
2018-09-14T15:25:18.337Z,6.37
2018-09-14T15:27:48.840Z,8.13
2018-09-14T15:30:19.273Z,7.57
2018-09-14T15:32:49.769Z,3.57
2018-09-14T15:35:20.312Z,6.70
2018-09-14T15:37:51.143Z,4.10
2018-09-14T15:40:22.117Z,7.37
2018-09-14T15:42:52.668Z,10.00
2018-09-14T15:45:23.049Z,10.00
2018-09-14T15:47:59.743Z,8.20
2018-09-14T15:50:30.218Z,6.40
2018-09-14T15:53:00.643Z,7.23
2018-09-14T15:55:30.939Z,4.63
2018-09-14T15:58:01.353Z,9.63
2018-09-14T16:00:31.929Z,5.43
2018-09-14T16:03:02.332Z,8.47
2018-09-14T16:05:32.808Z,5.67
2018-09-14T16:08:03.317Z,6.83
2018-09-14T16:10:33.764Z,6.10
2018-09-14T16:13:04.258Z,4.87
2018-09-14T16:15:34.711Z,4.30
2018-09-14T16:18:05.154Z,8.23
2018-09-14T16:20:35.613Z,6.80
2018-09-14T16:23:05.983Z,5.90
2018-09-14T16:25:36.408Z,6.27
2018-09-14T16:28:06.950Z,4.97
2018-09-14T16:30:37.200Z,7.27
2018-09-14T16:33:07.760Z,7.83
2018-09-14T16:35:38.121Z,6.17
2018-09-14T16:38:08.665Z,6.63
2018-09-14T16:40:39.291Z,6.20
2018-09-14T16:43:09.850Z,8.13
2018-09-14T16:45:40.122Z,3.93
2018-09-14T16:48:10.592Z,2.77
2018-09-14T16:50:40.957Z,3.90
2018-09-14T16:53:11.240Z,7.60
2018-09-14T16:55:41.449Z,2.77
2018-09-14T16:58:11.876Z,5.07
2018-09-14T17:00:42.272Z,7.77
2018-09-14T17:03:12.647Z,7.20
2018-09-14T17:05:43.144Z,5.10
2018-09-14T17:08:13.538Z,7.40
2018-09-14T17:10:43.866Z,5.47
2018-09-14T17:13:14.274Z,10.50
2018-09-14T17:15:44.950Z,4.80
2018-09-14T17:18:15.377Z,10.37
2018-09-14T17:20:46.037Z,5.63
2018-09-14T17:23:16.548Z,8.13
2018-09-14T17:25:47.075Z,7.50
2018-09-14T17:28:17.309Z,5.60
2018-09-14T17:30:47.704Z,7.87
2018-09-14T17:33:18.201Z,5.67
2018-09-14T17:35:48.800Z,8.67
2018-09-14T17:38:19.427Z,8.30
2018-09-14T17:40:50.467Z,8.77
2018-09-14T17:43:21.074Z,5.00
2018-09-14T17:45:52.043Z,4.20
2018-09-14T17:48:22.585Z,6.87
2018-09-14T17:50:53.331Z,4.90
2018-09-14T17:53:23.739Z,6.60
2018-09-14T17:55:54.139Z,5.40
2018-09-14T17:58:24.579Z,6.13
2018-09-14T18:00:55.044Z,3.33
2018-09-14T18:03:25.411Z,5.83
2018-09-14T18:05:55.841Z,4.53
2018-09-14T18:11:05.066Z,11.03
2018-09-14T18:13:35.616Z,5.17
2018-09-14T18:16:05.950Z,4.27
2018-09-14T18:18:36.375Z,6.40
2018-09-14T18:24:07.775Z,7.53
2018-09-14T18:26:38.243Z,4.83
2018-09-14T18:29:08.450Z,5.20
2018-09-14T18:31:38.927Z,10.93
2018-09-14T18:34:09.427Z,5.43
2018-09-14T18:36:39.779Z,8.07
2018-09-14T18:39:12.651Z,6.83
2018-09-14T18:41:43.800Z,12.63
2018-09-14T18:44:14.088Z,7.47
2018-09-14T18:46:44.663Z,10.30
2018-09-14T18:49:15.048Z,6.87
2018-09-14T18:51:45.600Z,5.37
2018-09-14T18:54:16.193Z,7.33
2018-09-14T18:56:46.573Z,7.13
2018-09-14T18:59:16.932Z,11.30
2018-09-14T19:01:47.720Z,6.80
2018-09-14T19:04:18.132Z,4.43
2018-09-14T19:07:11.313Z,9.87
2018-09-14T19:09:41.685Z,4.20
2018-09-14T19:12:11.950Z,16.93
2018-09-14T19:14:42.460Z,6.83
2018-09-14T19:17:12.970Z,6.43
2018-09-14T19:19:43.617Z,6.30
2018-09-14T19:22:14.109Z,4.33
2018-09-14T19:24:44.521Z,5.50
2018-09-14T19:27:14.971Z,5.23
2018-09-14T19:29:45.423Z,6.60
2018-09-14T19:32:15.914Z,6.53
2018-09-14T19:34:46.352Z,7.07
2018-09-14T19:37:16.691Z,8.00
2018-09-14T19:39:47.154Z,10.57
2018-09-14T19:42:17.624Z,9.40
2018-09-14T19:44:48.013Z,16.93
2018-09-14T19:47:18.576Z,9.13
2018-09-14T19:50:11.656Z,6.70
2018-09-14T19:52:42.116Z,14.27
2018-09-14T19:55:12.592Z,9.90
2018-09-14T19:57:43.188Z,8.87
2018-09-14T20:00:13.596Z,7.73
2018-09-14T20:02:43.977Z,9.30
2018-09-14T20:05:14.981Z,11.97
2018-09-14T20:07:45.700Z,9.80
2018-09-14T20:10:17.065Z,15.30
2018-09-14T20:12:47.528Z,10.70
2018-09-14T20:15:18.028Z,12.37
2018-09-14T20:17:48.528Z,14.57
2018-09-14T20:20:18.863Z,9.97
2018-09-14T20:22:49.945Z,9.67
2018-09-14T20:25:20.235Z,10.50
2018-09-14T20:27:50.611Z,8.70
2018-09-14T20:33:21.480Z,27.43
2018-09-14T20:35:55.233Z,14.47
2018-09-14T20:38:25.659Z,13.43
2018-09-14T20:40:56.181Z,10.07
2018-09-14T20:43:26.735Z,10.50
2018-09-14T20:45:57.587Z,8.43
2018-09-14T20:48:28.140Z,11.30
2018-09-14T20:50:58.732Z,11.97
2018-09-14T20:53:29.142Z,9.10
2018-09-14T20:55:59.562Z,10.57
2018-09-14T20:58:30.213Z,17.90
2018-09-14T21:01:00.708Z,13.10
2018-09-14T21:03:31.117Z,11.03
2018-09-14T21:06:01.564Z,21.10
2018-09-14T21:08:32.023Z,13.30
2018-09-14T21:11:02.383Z,12.53
2018-09-14T21:13:32.848Z,13.27
2018-09-14T21:16:03.155Z,12.77
2018-09-14T21:18:33.607Z,15.07
2018-09-14T21:21:04.079Z,10.27
2018-09-14T21:23:35.154Z,15.30
2018-09-14T21:26:05.927Z,10.90
2018-09-14T21:28:36.427Z,10.80
2018-09-14T21:31:06.886Z,12.27
2018-09-14T21:33:37.782Z,14.97
2018-09-14T21:36:08.176Z,11.17
2018-09-14T21:38:38.771Z,13.37
2018-09-14T21:41:09.118Z,13.10
2018-09-14T21:43:39.494Z,14.70
2018-09-14T21:46:09.856Z,14.20
2018-09-14T21:48:40.316Z,16.03
2018-09-14T21:51:10.349Z,20.80
2018-09-14T21:53:40.458Z,13.07
2018-09-14T21:56:10.981Z,15.93
2018-09-14T21:58:41.416Z,11.70
2018-09-14T22:01:15.685Z,13.67
2018-09-14T22:03:46.249Z,19.97
2018-09-14T22:06:17.121Z,16.77
2018-09-14T22:08:47.516Z,12.67
2018-09-14T22:11:18.084Z,15.00
2018-09-14T22:13:48.841Z,13.93
2018-09-14T22:16:19.311Z,13.40
2018-09-14T22:18:49.726Z,12.27
2018-09-14T22:21:20.225Z,14.93
2018-09-14T22:23:50.790Z,11.10
2018-09-14T22:26:21.277Z,18.23
2018-09-14T22:28:51.887Z,18.03
2018-09-14T22:31:22.236Z,16.10
2018-09-14T22:33:52.610Z,22.37
2018-09-14T22:36:23.067Z,13.47
2018-09-14T22:38:53.744Z,14.80
2018-09-14T22:41:24.043Z,18.43
2018-09-14T22:43:54.400Z,14.27
2018-09-14T22:46:24.896Z,15.30
2018-09-14T22:48:55.364Z,15.87
2018-09-14T22:51:25.990Z,18.03
2018-09-14T22:53:56.501Z,19.93
2018-09-14T22:56:26.828Z,14.23
2018-09-14T22:58:57.260Z,20.83
2018-09-14T23:01:27.812Z,19.17
2018-09-14T23:03:58.315Z,17.17
2018-09-14T23:06:28.786Z,16.33
2018-09-14T23:12:00.466Z,17.00
2018-09-14T23:14:30.915Z,16.63
2018-09-14T23:17:01.420Z,16.70
2018-09-14T23:19:32.020Z,20.23
2018-09-14T23:22:02.617Z,20.70
2018-09-14T23:24:33.191Z,20.87
2018-09-14T23:27:03.722Z,26.43
2018-09-14T23:29:34.040Z,21.30
2018-09-14T23:32:04.863Z,18.30
2018-09-14T23:34:35.313Z,19.97
2018-09-14T23:37:05.855Z,23.03
2018-09-14T23:39:36.279Z,20.93
2018-09-14T23:42:06.635Z,19.20
2018-09-14T23:44:36.819Z,27.13
2018-09-14T23:47:07.607Z,21.47
2018-09-14T23:49:37.972Z,27.00
2018-09-14T23:52:08.465Z,19.37
2018-09-14T23:54:38.915Z,20.80
2018-09-14T23:57:09.159Z,30.97
2018-09-14T23:59:39.656Z,23.70
